sensor_id;sensor_type;location;lat;lon;timestamp;P1;durP1;ratioP1;P2;durP2;ratioP2
12334;SDS011;6233;51.560;9.986;2023-05-29T00:01:36;7.00;;;4.77;;
12334;SDS011;6233;51.560;9.986;2023-05-29T00:04:39;7.90;;;4.20;;
12334;SDS011;6233;51.560;9.986;2023-05-29T00:07:41;5.83;;;4.23;;
12334;SDS011;6233;51.560;9.986;2023-05-29T00:10:43;7.87;;;4.60;;
12334;SDS011;6233;51.560;9.986;2023-05-29T00:13:46;7.83;;;4.57;;
12334;SDS011;6233;51.560;9.986;2023-05-29T00:16:48;7.50;;;4.53;;
12334;SDS011;6233;51.560;9.986;2023-05-29T00:19:51;6.10;;;4.33;;
12334;SDS011;6233;51.560;9.986;2023-05-29T00:22:53;5.87;;;4.40;;
12334;SDS011;6233;51.560;9.986;2023-05-29T00:25:56;6.53;;;4.47;;
12334;SDS011;6233;51.560;9.986;2023-05-29T00:28:58;6.20;;;4.60;;
12334;SDS011;6233;51.560;9.986;2023-05-29T00:32:00;8.63;;;4.63;;
12334;SDS011;6233;51.560;9.986;2023-05-29T00:35:03;8.33;;;4.80;;
12334;SDS011;6233;51.560;9.986;2023-05-29T00:38:05;6.13;;;4.30;;
12334;SDS011;6233;51.560;9.986;2023-05-29T00:41:08;6.97;;;5.00;;
12334;SDS011;6233;51.560;9.986;2023-05-29T00:44:10;8.73;;;4.37;;
12334;SDS011;6233;51.560;9.986;2023-05-29T00:47:12;8.33;;;4.70;;
12334;SDS011;6233;51.560;9.986;2023-05-29T00:50:15;6.00;;;4.70;;
12334;SDS011;6233;51.560;9.986;2023-05-29T00:53:18;7.77;;;5.13;;
12334;SDS011;6233;51.560;9.986;2023-05-29T00:56:21;6.87;;;5.00;;
12334;SDS011;6233;51.560;9.986;2023-05-29T00:59:25;6.87;;;4.63;;
12334;SDS011;6233;51.560;9.986;2023-05-29T01:02:28;8.40;;;5.33;;
12334;SDS011;6233;51.560;9.986;2023-05-29T01:05:34;10.10;;;5.87;;
12334;SDS011;6233;51.560;9.986;2023-05-29T01:08:37;9.13;;;5.30;;
12334;SDS011;6233;51.560;9.986;2023-05-29T01:18:20;7.90;;;5.20;;
12334;SDS011;6233;51.560;9.986;2023-05-29T01:21:37;8.00;;;5.13;;
12334;SDS011;6233;51.560;9.986;2023-05-29T01:24:48;9.47;;;5.00;;
12334;SDS011;6233;51.560;9.986;2023-05-29T01:27:54;7.90;;;5.60;;
12334;SDS011;6233;51.560;9.986;2023-05-29T01:30:57;10.70;;;5.97;;
12334;SDS011;6233;51.560;9.986;2023-05-29T01:34:00;7.80;;;5.63;;
12334;SDS011;6233;51.560;9.986;2023-05-29T01:37:03;10.63;;;5.60;;
12334;SDS011;6233;51.560;9.986;2023-05-29T01:40:05;8.97;;;5.10;;
12334;SDS011;6233;51.560;9.986;2023-05-29T01:43:08;10.03;;;5.47;;
12334;SDS011;6233;51.560;9.986;2023-05-29T01:46:11;6.97;;;4.97;;
12334;SDS011;6233;51.560;9.986;2023-05-29T01:49:14;7.73;;;5.40;;
12334;SDS011;6233;51.560;9.986;2023-05-29T01:52:17;6.90;;;5.17;;
12334;SDS011;6233;51.560;9.986;2023-05-29T01:55:19;6.20;;;5.23;;
12334;SDS011;6233;51.560;9.986;2023-05-29T01:58:21;8.90;;;5.27;;
12334;SDS011;6233;51.560;9.986;2023-05-29T02:01:25;11.50;;;5.93;;
12334;SDS011;6233;51.560;9.986;2023-05-29T02:04:27;9.77;;;5.27;;
12334;SDS011;6233;51.560;9.986;2023-05-29T02:07:30;8.67;;;5.00;;
12334;SDS011;6233;51.560;9.986;2023-05-29T02:10:32;9.20;;;5.00;;
12334;SDS011;6233;51.560;9.986;2023-05-29T02:13:34;10.43;;;5.77;;
12334;SDS011;6233;51.560;9.986;2023-05-29T02:16:36;7.03;;;4.70;;
12334;SDS011;6233;51.560;9.986;2023-05-29T02:19:42;8.47;;;5.27;;
12334;SDS011;6233;51.560;9.986;2023-05-29T02:22:44;9.97;;;5.60;;
12334;SDS011;6233;51.560;9.986;2023-05-29T02:25:46;7.73;;;5.27;;
12334;SDS011;6233;51.560;9.986;2023-05-29T02:28:49;6.57;;;4.80;;
12334;SDS011;6233;51.560;9.986;2023-05-29T02:31:51;9.07;;;4.97;;
12334;SDS011;6233;51.560;9.986;2023-05-29T02:34:53;8.50;;;4.83;;
12334;SDS011;6233;51.560;9.986;2023-05-29T02:37:55;7.03;;;4.80;;
12334;SDS011;6233;51.560;9.986;2023-05-29T02:40:58;6.90;;;4.73;;
12334;SDS011;6233;51.560;9.986;2023-05-29T02:44:00;6.67;;;4.63;;
12334;SDS011;6233;51.560;9.986;2023-05-29T02:47:02;7.03;;;5.20;;
12334;SDS011;6233;51.560;9.986;2023-05-29T02:50:04;7.27;;;4.67;;
12334;SDS011;6233;51.560;9.986;2023-05-29T02:53:06;7.57;;;4.93;;
12334;SDS011;6233;51.560;9.986;2023-05-29T02:56:09;8.57;;;5.63;;
12334;SDS011;6233;51.560;9.986;2023-05-29T02:59:11;15.40;;;5.23;;
12334;SDS011;6233;51.560;9.986;2023-05-29T03:02:13;6.77;;;4.93;;
12334;SDS011;6233;51.560;9.986;2023-05-29T03:05:15;7.83;;;4.90;;
12334;SDS011;6233;51.560;9.986;2023-05-29T03:08:18;7.10;;;5.20;;
12334;SDS011;6233;51.560;9.986;2023-05-29T03:11:20;7.07;;;5.03;;
12334;SDS011;6233;51.560;9.986;2023-05-29T03:14:24;8.37;;;5.17;;
12334;SDS011;6233;51.560;9.986;2023-05-29T03:17:28;9.27;;;5.20;;
12334;SDS011;6233;51.560;9.986;2023-05-29T03:20:30;7.30;;;4.80;;
12334;SDS011;6233;51.560;9.986;2023-05-29T03:23:33;6.70;;;4.93;;
12334;SDS011;6233;51.560;9.986;2023-05-29T03:26:35;7.93;;;5.37;;
12334;SDS011;6233;51.560;9.986;2023-05-29T03:29:37;7.80;;;5.03;;
12334;SDS011;6233;51.560;9.986;2023-05-29T03:32:40;8.77;;;5.17;;
12334;SDS011;6233;51.560;9.986;2023-05-29T03:35:42;7.37;;;5.00;;
12334;SDS011;6233;51.560;9.986;2023-05-29T03:38:44;7.90;;;5.10;;
12334;SDS011;6233;51.560;9.986;2023-05-29T03:41:46;6.67;;;5.17;;
12334;SDS011;6233;51.560;9.986;2023-05-29T03:44:48;8.73;;;5.37;;
12334;SDS011;6233;51.560;9.986;2023-05-29T03:47:51;8.50;;;5.20;;
12334;SDS011;6233;51.560;9.986;2023-05-29T03:50:53;8.17;;;5.20;;
12334;SDS011;6233;51.560;9.986;2023-05-29T03:53:55;10.23;;;5.20;;
12334;SDS011;6233;51.560;9.986;2023-05-29T03:56:57;7.83;;;5.23;;
12334;SDS011;6233;51.560;9.986;2023-05-29T03:59:59;7.60;;;4.83;;
12334;SDS011;6233;51.560;9.986;2023-05-29T04:03:01;7.00;;;4.93;;
12334;SDS011;6233;51.560;9.986;2023-05-29T04:06:04;7.80;;;5.27;;
12334;SDS011;6233;51.560;9.986;2023-05-29T04:09:06;9.50;;;5.93;;
12334;SDS011;6233;51.560;9.986;2023-05-29T04:12:09;7.27;;;5.30;;
12334;SDS011;6233;51.560;9.986;2023-05-29T04:15:11;7.70;;;5.20;;
12334;SDS011;6233;51.560;9.986;2023-05-29T04:18:13;7.53;;;5.77;;
12334;SDS011;6233;51.560;9.986;2023-05-29T04:21:16;6.90;;;4.80;;
12334;SDS011;6233;51.560;9.986;2023-05-29T04:24:18;8.37;;;4.87;;
12334;SDS011;6233;51.560;9.986;2023-05-29T04:27:20;7.47;;;4.90;;
12334;SDS011;6233;51.560;9.986;2023-05-29T04:30:22;9.97;;;5.93;;
12334;SDS011;6233;51.560;9.986;2023-05-29T04:33:25;8.33;;;5.03;;
12334;SDS011;6233;51.560;9.986;2023-05-29T04:36:27;9.33;;;6.30;;
12334;SDS011;6233;51.560;9.986;2023-05-29T04:39:29;8.50;;;5.20;;
12334;SDS011;6233;51.560;9.986;2023-05-29T04:42:32;6.90;;;5.43;;
12334;SDS011;6233;51.560;9.986;2023-05-29T04:45:34;9.40;;;5.70;;
12334;SDS011;6233;51.560;9.986;2023-05-29T04:48:38;8.60;;;5.23;;
12334;SDS011;6233;51.560;9.986;2023-05-29T04:51:45;8.43;;;5.57;;
12334;SDS011;6233;51.560;9.986;2023-05-29T04:54:47;9.60;;;5.60;;
12334;SDS011;6233;51.560;9.986;2023-05-29T04:57:49;9.97;;;5.57;;
12334;SDS011;6233;51.560;9.986;2023-05-29T05:00:52;7.53;;;4.97;;
12334;SDS011;6233;51.560;9.986;2023-05-29T05:03:59;9.00;;;4.80;;
12334;SDS011;6233;51.560;9.986;2023-05-29T05:07:01;7.10;;;4.80;;
12334;SDS011;6233;51.560;9.986;2023-05-29T05:10:04;6.87;;;5.00;;
12334;SDS011;6233;51.560;9.986;2023-05-29T05:13:07;7.93;;;5.13;;
12334;SDS011;6233;51.560;9.986;2023-05-29T05:16:09;7.90;;;5.00;;
12334;SDS011;6233;51.560;9.986;2023-05-29T05:19:11;7.73;;;5.20;;
12334;SDS011;6233;51.560;9.986;2023-05-29T05:22:14;6.40;;;4.80;;
12334;SDS011;6233;51.560;9.986;2023-05-29T05:25:16;7.73;;;4.30;;
12334;SDS011;6233;51.560;9.986;2023-05-29T05:28:18;7.63;;;4.33;;
12334;SDS011;6233;51.560;9.986;2023-05-29T05:31:21;9.07;;;5.77;;
12334;SDS011;6233;51.560;9.986;2023-05-29T05:34:23;6.43;;;4.70;;
12334;SDS011;6233;51.560;9.986;2023-05-29T05:37:25;7.80;;;5.20;;
12334;SDS011;6233;51.560;9.986;2023-05-29T05:40:28;5.57;;;4.80;;
12334;SDS011;6233;51.560;9.986;2023-05-29T05:43:30;5.50;;;4.40;;
12334;SDS011;6233;51.560;9.986;2023-05-29T05:46:32;7.67;;;4.37;;
12334;SDS011;6233;51.560;9.986;2023-05-29T05:49:34;6.50;;;4.77;;
12334;SDS011;6233;51.560;9.986;2023-05-29T05:52:37;11.43;;;7.40;;
12334;SDS011;6233;51.560;9.986;2023-05-29T05:55:39;5.00;;;4.40;;
12334;SDS011;6233;51.560;9.986;2023-05-29T05:58:41;5.37;;;4.20;;
12334;SDS011;6233;51.560;9.986;2023-05-29T06:01:43;5.50;;;4.23;;
12334;SDS011;6233;51.560;9.986;2023-05-29T06:04:45;5.23;;;4.40;;
12334;SDS011;6233;51.560;9.986;2023-05-29T06:07:47;5.93;;;4.23;;
12334;SDS011;6233;51.560;9.986;2023-05-29T06:10:50;7.17;;;4.47;;
12334;SDS011;6233;51.560;9.986;2023-05-29T06:13:52;5.83;;;4.27;;
12334;SDS011;6233;51.560;9.986;2023-05-29T06:16:54;6.20;;;4.63;;
12334;SDS011;6233;51.560;9.986;2023-05-29T06:19:57;6.17;;;4.80;;
12334;SDS011;6233;51.560;9.986;2023-05-29T06:22:59;6.50;;;4.53;;
12334;SDS011;6233;51.560;9.986;2023-05-29T06:26:02;5.90;;;4.67;;
12334;SDS011;6233;51.560;9.986;2023-05-29T06:29:04;6.10;;;4.33;;
12334;SDS011;6233;51.560;9.986;2023-05-29T06:32:07;4.20;;;3.80;;
12334;SDS011;6233;51.560;9.986;2023-05-29T06:35:09;6.03;;;3.97;;
12334;SDS011;6233;51.560;9.986;2023-05-29T06:38:11;6.23;;;4.43;;
12334;SDS011;6233;51.560;9.986;2023-05-29T06:41:13;6.27;;;4.00;;
12334;SDS011;6233;51.560;9.986;2023-05-29T06:44:16;6.97;;;5.17;;
12334;SDS011;6233;51.560;9.986;2023-05-29T06:47:18;8.70;;;6.57;;
12334;SDS011;6233;51.560;9.986;2023-05-29T06:50:20;7.07;;;4.73;;
12334;SDS011;6233;51.560;9.986;2023-05-29T06:53:22;6.30;;;4.87;;
12334;SDS011;6233;51.560;9.986;2023-05-29T06:56:24;5.17;;;4.03;;
12334;SDS011;6233;51.560;9.986;2023-05-29T06:59:28;6.33;;;4.13;;
12334;SDS011;6233;51.560;9.986;2023-05-29T07:02:30;4.60;;;3.77;;
12334;SDS011;6233;51.560;9.986;2023-05-29T07:05:33;4.53;;;3.73;;
12334;SDS011;6233;51.560;9.986;2023-05-29T07:08:35;4.60;;;3.87;;
12334;SDS011;6233;51.560;9.986;2023-05-29T07:11:37;5.03;;;4.07;;
12334;SDS011;6233;51.560;9.986;2023-05-29T07:14:40;5.80;;;4.63;;
12334;SDS011;6233;51.560;9.986;2023-05-29T07:17:42;6.10;;;3.90;;
12334;SDS011;6233;51.560;9.986;2023-05-29T07:20:44;7.53;;;3.70;;
12334;SDS011;6233;51.560;9.986;2023-05-29T07:23:47;5.27;;;3.70;;
12334;SDS011;6233;51.560;9.986;2023-05-29T07:26:49;8.13;;;3.90;;
12334;SDS011;6233;51.560;9.986;2023-05-29T07:29:51;4.97;;;3.40;;
12334;SDS011;6233;51.560;9.986;2023-05-29T07:33:15;6.63;;;4.17;;
12334;SDS011;6233;51.560;9.986;2023-05-29T07:36:30;4.93;;;3.70;;
12334;SDS011;6233;51.560;9.986;2023-05-29T07:39:33;7.33;;;4.10;;
12334;SDS011;6233;51.560;9.986;2023-05-29T07:42:36;6.73;;;3.63;;
12334;SDS011;6233;51.560;9.986;2023-05-29T07:49:16;7.57;;;3.97;;
12334;SDS011;6233;51.560;9.986;2023-05-29T07:52:18;6.57;;;4.27;;
12334;SDS011;6233;51.560;9.986;2023-05-29T07:55:21;7.07;;;4.90;;
12334;SDS011;6233;51.560;9.986;2023-05-29T07:58:23;5.37;;;4.07;;
12334;SDS011;6233;51.560;9.986;2023-05-29T08:01:25;7.37;;;3.93;;
12334;SDS011;6233;51.560;9.986;2023-05-29T08:04:28;4.77;;;3.40;;
12334;SDS011;6233;51.560;9.986;2023-05-29T08:07:30;7.17;;;4.17;;
12334;SDS011;6233;51.560;9.986;2023-05-29T08:10:33;5.33;;;3.77;;
12334;SDS011;6233;51.560;9.986;2023-05-29T08:13:35;5.87;;;3.97;;
12334;SDS011;6233;51.560;9.986;2023-05-29T08:16:53;6.23;;;4.13;;
12334;SDS011;6233;51.560;9.986;2023-05-29T08:19:55;7.47;;;4.10;;
12334;SDS011;6233;51.560;9.986;2023-05-29T08:22:57;5.30;;;3.97;;
12334;SDS011;6233;51.560;9.986;2023-05-29T08:26:03;6.53;;;4.30;;
12334;SDS011;6233;51.560;9.986;2023-05-29T08:29:05;7.60;;;4.17;;
12334;SDS011;6233;51.560;9.986;2023-05-29T08:32:07;5.00;;;4.07;;
12334;SDS011;6233;51.560;9.986;2023-05-29T08:35:10;5.23;;;3.67;;
12334;SDS011;6233;51.560;9.986;2023-05-29T08:44:56;5.20;;;3.43;;
12334;SDS011;6233;51.560;9.986;2023-05-29T08:48:01;6.03;;;3.60;;
12334;SDS011;6233;51.560;9.986;2023-05-29T08:51:03;6.10;;;4.17;;
12334;SDS011;6233;51.560;9.986;2023-05-29T08:54:06;7.03;;;3.87;;
12334;SDS011;6233;51.560;9.986;2023-05-29T08:57:14;5.60;;;3.57;;
12334;SDS011;6233;51.560;9.986;2023-05-29T09:00:17;6.43;;;3.80;;
12334;SDS011;6233;51.560;9.986;2023-05-29T09:03:19;6.70;;;3.70;;
12334;SDS011;6233;51.560;9.986;2023-05-29T09:06:23;7.30;;;3.60;;
12334;SDS011;6233;51.560;9.986;2023-05-29T09:09:26;7.83;;;3.47;;
12334;SDS011;6233;51.560;9.986;2023-05-29T09:12:28;6.63;;;3.67;;
12334;SDS011;6233;51.560;9.986;2023-05-29T09:15:31;6.00;;;4.17;;
12334;SDS011;6233;51.560;9.986;2023-05-29T09:18:34;4.60;;;3.70;;
12334;SDS011;6233;51.560;9.986;2023-05-29T09:21:36;5.27;;;3.60;;
12334;SDS011;6233;51.560;9.986;2023-05-29T09:24:39;6.90;;;3.87;;
12334;SDS011;6233;51.560;9.986;2023-05-29T09:27:41;4.03;;;3.63;;
12334;SDS011;6233;51.560;9.986;2023-05-29T09:30:44;8.67;;;4.00;;
12334;SDS011;6233;51.560;9.986;2023-05-29T09:33:50;6.60;;;3.73;;
12334;SDS011;6233;51.560;9.986;2023-05-29T09:40:57;4.73;;;3.70;;
12334;SDS011;6233;51.560;9.986;2023-05-29T09:44:06;4.53;;;3.37;;
12334;SDS011;6233;51.560;9.986;2023-05-29T09:47:14;7.33;;;4.10;;
12334;SDS011;6233;51.560;9.986;2023-05-29T09:50:18;7.23;;;4.40;;
12334;SDS011;6233;51.560;9.986;2023-05-29T09:53:24;7.27;;;3.70;;
12334;SDS011;6233;51.560;9.986;2023-05-29T09:56:27;7.13;;;3.57;;
12334;SDS011;6233;51.560;9.986;2023-05-29T09:59:30;5.97;;;3.43;;
12334;SDS011;6233;51.560;9.986;2023-05-29T10:02:33;5.87;;;3.93;;
12334;SDS011;6233;51.560;9.986;2023-05-29T10:05:36;7.67;;;3.87;;
12334;SDS011;6233;51.560;9.986;2023-05-29T10:08:41;9.33;;;4.17;;
12334;SDS011;6233;51.560;9.986;2023-05-29T10:11:44;5.83;;;3.97;;
12334;SDS011;6233;51.560;9.986;2023-05-29T10:14:49;6.87;;;4.50;;
12334;SDS011;6233;51.560;9.986;2023-05-29T10:18:05;6.83;;;4.07;;
12334;SDS011;6233;51.560;9.986;2023-05-29T10:21:11;7.87;;;4.30;;
12334;SDS011;6233;51.560;9.986;2023-05-29T10:24:13;5.83;;;4.10;;
12334;SDS011;6233;51.560;9.986;2023-05-29T10:27:27;5.97;;;3.53;;
12334;SDS011;6233;51.560;9.986;2023-05-29T10:30:40;10.03;;;4.37;;
12334;SDS011;6233;51.560;9.986;2023-05-29T10:40:33;6.67;;;4.03;;
12334;SDS011;6233;51.560;9.986;2023-05-29T10:43:35;7.80;;;4.60;;
12334;SDS011;6233;51.560;9.986;2023-05-29T10:49:48;7.97;;;4.17;;
12334;SDS011;6233;51.560;9.986;2023-05-29T10:52:52;9.57;;;5.10;;
12334;SDS011;6233;51.560;9.986;2023-05-29T10:55:54;6.13;;;4.23;;
12334;SDS011;6233;51.560;9.986;2023-05-29T10:58:57;7.57;;;4.57;;
12334;SDS011;6233;51.560;9.986;2023-05-29T11:02:02;7.97;;;4.13;;
12334;SDS011;6233;51.560;9.986;2023-05-29T11:05:19;6.13;;;3.93;;
12334;SDS011;6233;51.560;9.986;2023-05-29T11:15:26;6.60;;;4.00;;
12334;SDS011;6233;51.560;9.986;2023-05-29T11:18:28;6.83;;;4.00;;
12334;SDS011;6233;51.560;9.986;2023-05-29T11:24:33;6.90;;;4.07;;
12334;SDS011;6233;51.560;9.986;2023-05-29T11:27:38;7.00;;;3.97;;
12334;SDS011;6233;51.560;9.986;2023-05-29T11:30:45;8.17;;;4.23;;
12334;SDS011;6233;51.560;9.986;2023-05-29T11:33:48;8.40;;;4.20;;
12334;SDS011;6233;51.560;9.986;2023-05-29T11:36:51;6.47;;;3.90;;
12334;SDS011;6233;51.560;9.986;2023-05-29T11:39:54;6.60;;;3.90;;
12334;SDS011;6233;51.560;9.986;2023-05-29T11:42:56;8.17;;;4.00;;
12334;SDS011;6233;51.560;9.986;2023-05-29T11:45:58;5.93;;;3.70;;
12334;SDS011;6233;51.560;9.986;2023-05-29T11:49:00;5.30;;;4.10;;
12334;SDS011;6233;51.560;9.986;2023-05-29T11:52:07;9.03;;;3.97;;
12334;SDS011;6233;51.560;9.986;2023-05-29T11:55:20;5.73;;;3.87;;
12334;SDS011;6233;51.560;9.986;2023-05-29T11:58:22;9.87;;;4.50;;
12334;SDS011;6233;51.560;9.986;2023-05-29T12:01:25;6.83;;;3.77;;
12334;SDS011;6233;51.560;9.986;2023-05-29T12:04:28;8.57;;;4.23;;
12334;SDS011;6233;51.560;9.986;2023-05-29T12:07:30;7.83;;;4.20;;
12334;SDS011;6233;51.560;9.986;2023-05-29T12:10:32;7.70;;;4.13;;
12334;SDS011;6233;51.560;9.986;2023-05-29T12:13:34;9.20;;;4.37;;
12334;SDS011;6233;51.560;9.986;2023-05-29T12:16:36;7.80;;;3.63;;
12334;SDS011;6233;51.560;9.986;2023-05-29T12:19:39;7.47;;;4.03;;
12334;SDS011;6233;51.560;9.986;2023-05-29T12:22:42;7.00;;;4.10;;
12334;SDS011;6233;51.560;9.986;2023-05-29T12:25:44;8.17;;;3.93;;
12334;SDS011;6233;51.560;9.986;2023-05-29T12:28:47;7.00;;;4.23;;
12334;SDS011;6233;51.560;9.986;2023-05-29T12:31:57;5.40;;;3.50;;
12334;SDS011;6233;51.560;9.986;2023-05-29T12:35:00;6.27;;;3.83;;
12334;SDS011;6233;51.560;9.986;2023-05-29T12:38:05;7.40;;;3.67;;
12334;SDS011;6233;51.560;9.986;2023-05-29T12:44:31;6.47;;;3.57;;
12334;SDS011;6233;51.560;9.986;2023-05-29T12:47:33;6.30;;;4.13;;
12334;SDS011;6233;51.560;9.986;2023-05-29T12:50:37;8.13;;;3.50;;
12334;SDS011;6233;51.560;9.986;2023-05-29T12:53:40;8.13;;;3.57;;
12334;SDS011;6233;51.560;9.986;2023-05-29T12:56:42;3.80;;;3.40;;
12334;SDS011;6233;51.560;9.986;2023-05-29T12:59:44;7.63;;;3.60;;
12334;SDS011;6233;51.560;9.986;2023-05-29T13:02:47;7.57;;;4.40;;
12334;SDS011;6233;51.560;9.986;2023-05-29T13:05:50;5.57;;;3.20;;
12334;SDS011;6233;51.560;9.986;2023-05-29T13:08:52;7.90;;;3.97;;
12334;SDS011;6233;51.560;9.986;2023-05-29T13:11:54;7.93;;;3.73;;
12334;SDS011;6233;51.560;9.986;2023-05-29T13:18:17;5.97;;;3.87;;
12334;SDS011;6233;51.560;9.986;2023-05-29T13:21:19;7.83;;;5.60;;
12334;SDS011;6233;51.560;9.986;2023-05-29T13:24:21;7.10;;;3.63;;
12334;SDS011;6233;51.560;9.986;2023-05-29T13:27:23;6.60;;;3.83;;
12334;SDS011;6233;51.560;9.986;2023-05-29T13:30:26;7.73;;;3.83;;
12334;SDS011;6233;51.560;9.986;2023-05-29T13:33:28;9.90;;;3.80;;
12334;SDS011;6233;51.560;9.986;2023-05-29T13:36:30;7.37;;;3.63;;
12334;SDS011;6233;51.560;9.986;2023-05-29T13:39:32;5.73;;;3.37;;
12334;SDS011;6233;51.560;9.986;2023-05-29T13:46:38;5.57;;;3.37;;
12334;SDS011;6233;51.560;9.986;2023-05-29T13:49:56;7.10;;;3.40;;
12334;SDS011;6233;51.560;9.986;2023-05-29T13:52:58;8.00;;;3.47;;
12334;SDS011;6233;51.560;9.986;2023-05-29T13:56:00;6.07;;;4.17;;
12334;SDS011;6233;51.560;9.986;2023-05-29T13:59:02;6.60;;;5.03;;
12334;SDS011;6233;51.560;9.986;2023-05-29T14:02:07;7.37;;;3.87;;
12334;SDS011;6233;51.560;9.986;2023-05-29T14:05:09;6.30;;;3.67;;
12334;SDS011;6233;51.560;9.986;2023-05-29T14:08:12;6.47;;;3.50;;
12334;SDS011;6233;51.560;9.986;2023-05-29T14:11:14;9.77;;;4.60;;
12334;SDS011;6233;51.560;9.986;2023-05-29T14:14:16;5.57;;;3.47;;
12334;SDS011;6233;51.560;9.986;2023-05-29T14:17:18;7.80;;;3.90;;
12334;SDS011;6233;51.560;9.986;2023-05-29T14:20:20;9.87;;;4.67;;
12334;SDS011;6233;51.560;9.986;2023-05-29T14:23:23;6.80;;;3.60;;
12334;SDS011;6233;51.560;9.986;2023-05-29T14:26:25;8.17;;;4.30;;
12334;SDS011;6233;51.560;9.986;2023-05-29T14:29:27;4.47;;;3.30;;
12334;SDS011;6233;51.560;9.986;2023-05-29T14:32:29;5.60;;;3.57;;
12334;SDS011;6233;51.560;9.986;2023-05-29T14:35:31;5.97;;;4.07;;
12334;SDS011;6233;51.560;9.986;2023-05-29T14:38:48;5.37;;;3.37;;
12334;SDS011;6233;51.560;9.986;2023-05-29T14:41:50;7.77;;;4.30;;
12334;SDS011;6233;51.560;9.986;2023-05-29T14:44:52;9.37;;;4.03;;
12334;SDS011;6233;51.560;9.986;2023-05-29T14:47:55;7.73;;;3.97;;
12334;SDS011;6233;51.560;9.986;2023-05-29T14:50:57;7.93;;;4.10;;
12334;SDS011;6233;51.560;9.986;2023-05-29T14:53:59;7.40;;;3.33;;
12334;SDS011;6233;51.560;9.986;2023-05-29T14:57:01;6.83;;;4.07;;
12334;SDS011;6233;51.560;9.986;2023-05-29T15:00:03;7.33;;;4.43;;
12334;SDS011;6233;51.560;9.986;2023-05-29T15:03:10;7.50;;;3.60;;
12334;SDS011;6233;51.560;9.986;2023-05-29T15:06:12;7.00;;;4.23;;
12334;SDS011;6233;51.560;9.986;2023-05-29T15:09:14;8.00;;;3.47;;
12334;SDS011;6233;51.560;9.986;2023-05-29T15:12:16;5.43;;;3.43;;
12334;SDS011;6233;51.560;9.986;2023-05-29T15:15:18;4.93;;;3.53;;
12334;SDS011;6233;51.560;9.986;2023-05-29T15:18:21;6.03;;;4.10;;
12334;SDS011;6233;51.560;9.986;2023-05-29T15:21:23;6.77;;;4.00;;
12334;SDS011;6233;51.560;9.986;2023-05-29T15:24:26;6.27;;;4.07;;
12334;SDS011;6233;51.560;9.986;2023-05-29T15:27:28;4.30;;;3.17;;
12334;SDS011;6233;51.560;9.986;2023-05-29T15:30:32;6.60;;;4.00;;
12334;SDS011;6233;51.560;9.986;2023-05-29T15:33:35;8.60;;;3.83;;
12334;SDS011;6233;51.560;9.986;2023-05-29T15:36:37;7.17;;;4.97;;
12334;SDS011;6233;51.560;9.986;2023-05-29T15:39:39;6.13;;;3.73;;
12334;SDS011;6233;51.560;9.986;2023-05-29T15:42:41;7.63;;;3.50;;
12334;SDS011;6233;51.560;9.986;2023-05-29T15:45:44;6.53;;;3.93;;
12334;SDS011;6233;51.560;9.986;2023-05-29T15:48:47;6.07;;;3.80;;
12334;SDS011;6233;51.560;9.986;2023-05-29T15:51:51;8.53;;;3.97;;
12334;SDS011;6233;51.560;9.986;2023-05-29T15:58:34;6.87;;;3.80;;
12334;SDS011;6233;51.560;9.986;2023-05-29T16:01:37;8.03;;;3.70;;
12334;SDS011;6233;51.560;9.986;2023-05-29T16:04:39;6.10;;;4.00;;
12334;SDS011;6233;51.560;9.986;2023-05-29T16:07:41;7.13;;;4.10;;
12334;SDS011;6233;51.560;9.986;2023-05-29T16:10:48;5.13;;;3.40;;
12334;SDS011;6233;51.560;9.986;2023-05-29T16:13:50;5.37;;;3.80;;
12334;SDS011;6233;51.560;9.986;2023-05-29T16:16:53;6.47;;;3.93;;
12334;SDS011;6233;51.560;9.986;2023-05-29T16:19:55;4.93;;;3.40;;
12334;SDS011;6233;51.560;9.986;2023-05-29T16:22:57;9.17;;;4.50;;
12334;SDS011;6233;51.560;9.986;2023-05-29T16:26:00;7.23;;;3.30;;
12334;SDS011;6233;51.560;9.986;2023-05-29T16:32:31;6.30;;;3.33;;
12334;SDS011;6233;51.560;9.986;2023-05-29T16:35:33;7.27;;;3.97;;
12334;SDS011;6233;51.560;9.986;2023-05-29T16:38:36;5.30;;;3.60;;
12334;SDS011;6233;51.560;9.986;2023-05-29T16:41:38;8.27;;;4.27;;
12334;SDS011;6233;51.560;9.986;2023-05-29T16:44:40;7.00;;;3.53;;
12334;SDS011;6233;51.560;9.986;2023-05-29T16:47:44;6.90;;;3.50;;
12334;SDS011;6233;51.560;9.986;2023-05-29T16:50:46;6.43;;;4.20;;
12334;SDS011;6233;51.560;9.986;2023-05-29T16:53:48;5.17;;;3.27;;
12334;SDS011;6233;51.560;9.986;2023-05-29T16:56:50;6.00;;;3.97;;
12334;SDS011;6233;51.560;9.986;2023-05-29T16:59:53;6.43;;;3.67;;
12334;SDS011;6233;51.560;9.986;2023-05-29T17:02:55;5.33;;;2.90;;
12334;SDS011;6233;51.560;9.986;2023-05-29T17:05:57;4.67;;;3.27;;
12334;SDS011;6233;51.560;9.986;2023-05-29T17:08:59;8.03;;;3.90;;
12334;SDS011;6233;51.560;9.986;2023-05-29T17:12:02;6.53;;;3.60;;
12334;SDS011;6233;51.560;9.986;2023-05-29T17:15:04;5.80;;;3.50;;
12334;SDS011;6233;51.560;9.986;2023-05-29T17:18:07;8.57;;;3.70;;
12334;SDS011;6233;51.560;9.986;2023-05-29T17:21:09;7.00;;;3.37;;
12334;SDS011;6233;51.560;9.986;2023-05-29T17:24:12;5.33;;;3.00;;
12334;SDS011;6233;51.560;9.986;2023-05-29T17:27:14;6.13;;;3.40;;
12334;SDS011;6233;51.560;9.986;2023-05-29T17:30:17;6.90;;;3.67;;
12334;SDS011;6233;51.560;9.986;2023-05-29T17:33:19;6.47;;;3.60;;
12334;SDS011;6233;51.560;9.986;2023-05-29T17:36:22;4.67;;;3.13;;
12334;SDS011;6233;51.560;9.986;2023-05-29T17:39:24;4.87;;;2.80;;
12334;SDS011;6233;51.560;9.986;2023-05-29T17:42:26;6.27;;;3.07;;
12334;SDS011;6233;51.560;9.986;2023-05-29T17:45:29;7.23;;;3.60;;
12334;SDS011;6233;51.560;9.986;2023-05-29T17:48:31;7.80;;;3.40;;
12334;SDS011;6233;51.560;9.986;2023-05-29T17:51:33;5.73;;;3.97;;
12334;SDS011;6233;51.560;9.986;2023-05-29T17:54:36;7.40;;;3.60;;
12334;SDS011;6233;51.560;9.986;2023-05-29T17:57:38;5.03;;;3.20;;
12334;SDS011;6233;51.560;9.986;2023-05-29T18:00:40;6.47;;;3.00;;
12334;SDS011;6233;51.560;9.986;2023-05-29T18:03:42;10.60;;;6.83;;
12334;SDS011;6233;51.560;9.986;2023-05-29T18:06:44;7.90;;;4.67;;
12334;SDS011;6233;51.560;9.986;2023-05-29T18:09:47;8.50;;;4.27;;
12334;SDS011;6233;51.560;9.986;2023-05-29T18:12:49;6.37;;;3.03;;
12334;SDS011;6233;51.560;9.986;2023-05-29T18:15:52;7.90;;;4.57;;
12334;SDS011;6233;51.560;9.986;2023-05-29T18:18:55;9.20;;;4.00;;
12334;SDS011;6233;51.560;9.986;2023-05-29T18:21:57;6.17;;;4.03;;
12334;SDS011;6233;51.560;9.986;2023-05-29T18:24:59;6.63;;;4.47;;
12334;SDS011;6233;51.560;9.986;2023-05-29T18:28:04;7.00;;;3.93;;
12334;SDS011;6233;51.560;9.986;2023-05-29T18:31:07;5.43;;;3.40;;
12334;SDS011;6233;51.560;9.986;2023-05-29T18:34:09;7.90;;;3.67;;
12334;SDS011;6233;51.560;9.986;2023-05-29T18:37:12;5.30;;;3.10;;
12334;SDS011;6233;51.560;9.986;2023-05-29T18:40:16;5.00;;;3.47;;
12334;SDS011;6233;51.560;9.986;2023-05-29T18:43:18;11.57;;;6.97;;
12334;SDS011;6233;51.560;9.986;2023-05-29T18:46:20;13.37;;;9.23;;
12334;SDS011;6233;51.560;9.986;2023-05-29T18:49:23;5.60;;;4.20;;
12334;SDS011;6233;51.560;9.986;2023-05-29T18:52:28;5.43;;;3.67;;
12334;SDS011;6233;51.560;9.986;2023-05-29T18:55:30;6.03;;;3.37;;
12334;SDS011;6233;51.560;9.986;2023-05-29T18:58:33;9.27;;;4.80;;
12334;SDS011;6233;51.560;9.986;2023-05-29T19:01:35;8.77;;;3.57;;
12334;SDS011;6233;51.560;9.986;2023-05-29T19:04:40;6.90;;;3.00;;
12334;SDS011;6233;51.560;9.986;2023-05-29T19:07:43;6.07;;;4.10;;
12334;SDS011;6233;51.560;9.986;2023-05-29T19:10:45;7.17;;;3.97;;
12334;SDS011;6233;51.560;9.986;2023-05-29T19:13:47;6.67;;;3.30;;
12334;SDS011;6233;51.560;9.986;2023-05-29T19:16:49;6.70;;;3.30;;
12334;SDS011;6233;51.560;9.986;2023-05-29T19:19:51;6.33;;;2.60;;
12334;SDS011;6233;51.560;9.986;2023-05-29T19:22:54;6.17;;;2.80;;
12334;SDS011;6233;51.560;9.986;2023-05-29T19:25:56;6.17;;;3.57;;
12334;SDS011;6233;51.560;9.986;2023-05-29T19:28:58;5.37;;;3.13;;
12334;SDS011;6233;51.560;9.986;2023-05-29T19:32:01;6.93;;;3.87;;
12334;SDS011;6233;51.560;9.986;2023-05-29T19:35:03;7.80;;;3.47;;
12334;SDS011;6233;51.560;9.986;2023-05-29T19:38:06;8.30;;;3.90;;